sensor_id;sensor_type;location;lat;lon;timestamp;pressure;altitude;pressure_sealevel;temperature;humidity
7832;BME280;3961;42.058;25.586;2023-05-10T00:02:01;63338.47;;;9.99;100.00
7832;BME280;3961;42.058;25.586;2023-05-10T00:04:27;63339.03;;;9.99;100.00
7832;BME280;3961;42.058;25.586;2023-05-10T00:06:53;63339.28;;;10.02;100.00
7832;BME280;3961;42.058;25.586;2023-05-10T00:09:19;63320.00;;;9.83;100.00
7832;BME280;3961;42.058;25.586;2023-05-10T00:11:44;63291.72;;;9.58;100.00
7832;BME280;3961;42.058;25.586;2023-05-10T00:14:11;63339.28;;;10.02;100.00
7832;BME280;3961;42.058;25.586;2023-05-10T00:16:37;63318.84;;;9.82;100.00
7832;BME280;3961;42.058;25.586;2023-05-10T00:19:02;63327.16;;;9.91;100.00
7832;BME280;3961;42.058;25.586;2023-05-10T00:21:28;63332.00;;;9.98;100.00
7832;BME280;3961;42.058;25.586;2023-05-10T00:23:54;63304.75;;;9.67;100.00
7832;BME280;3961;42.058;25.586;2023-05-10T00:26:20;63317.44;;;9.78;100.00
7832;BME280;3961;42.058;25.586;2023-05-10T00:28:45;63311.47;;;9.70;100.00
7832;BME280;3961;42.058;25.586;2023-05-10T00:31:11;63308.81;;;9.70;100.00
7832;BME280;3961;42.058;25.586;2023-05-10T00:33:36;63310.88;;;9.70;100.00
7832;BME280;3961;42.058;25.586;2023-05-10T00:36:02;63287.44;;;9.52;100.00
7832;BME280;3961;42.058;25.586;2023-05-10T00:38:27;63298.19;;;9.59;100.00
7832;BME280;3961;42.058;25.586;2023-05-10T00:40:53;63299.34;;;9.60;100.00
7832;BME280;3961;42.058;25.586;2023-05-10T00:43:19;63290.81;;;9.59;100.00
7832;BME280;3961;42.058;25.586;2023-05-10T00:45:44;63281.91;;;9.49;100.00
7832;BME280;3961;42.058;25.586;2023-05-10T00:48:10;63282.16;;;9.52;100.00
7832;BME280;3961;42.058;25.586;2023-05-10T00:50:35;63305.09;;;9.65;100.00
7832;BME280;3961;42.058;25.586;2023-05-10T00:53:02;63303.63;;;9.66;100.00
7832;BME280;3961;42.058;25.586;2023-05-10T00:55:28;63307.41;;;9.67;100.00
7832;BME280;3961;42.058;25.586;2023-05-10T00:57:53;63294.84;;;9.63;100.00
7832;BME280;3961;42.058;25.586;2023-05-10T01:00:19;63298.75;;;9.59;100.00
7832;BME280;3961;42.058;25.586;2023-05-10T01:02:45;63299.00;;;9.62;100.00
7832;BME280;3961;42.058;25.586;2023-05-10T01:05:12;63291.72;;;9.58;100.00
7832;BME280;3961;42.058;25.586;2023-05-10T01:07:37;63283.88;;;9.53;100.00
7832;BME280;3961;42.058;25.586;2023-05-10T01:10:07;63267.28;;;9.34;100.00
7832;BME280;3961;42.058;25.586;2023-05-10T01:12:39;63273.63;;;9.39;100.00
7832;BME280;3961;42.058;25.586;2023-05-10T01:15:08;63270.16;;;9.36;100.00
7832;BME280;3961;42.058;25.586;2023-05-10T01:17:37;63270.75;;;9.37;100.00
7832;BME280;3961;42.058;25.586;2023-05-10T01:20:04;63273.28;;;9.41;100.00
7832;BME280;3961;42.058;25.586;2023-05-10T01:25:25;63287.69;;;9.54;100.00
7832;BME280;3961;42.058;25.586;2023-05-10T01:27:59;63278.22;;;9.43;100.00
7832;BME280;3961;42.058;25.586;2023-05-10T01:30:55;63266.13;;;9.33;100.00
7832;BME280;3961;42.058;25.586;2023-05-10T01:34:06;63279.72;;;9.42;100.00
7832;BME280;3961;42.058;25.586;2023-05-10T01:36:46;63280.53;;;9.46;100.00
7832;BME280;3961;42.058;25.586;2023-05-10T01:42:11;63265.19;;;9.34;100.00
7832;BME280;3961;42.058;25.586;2023-05-10T01:47:10;63269.81;;;9.38;100.00
7832;BME280;3961;42.058;25.586;2023-05-10T01:49:41;63268.66;;;9.37;100.00
7832;BME280;3961;42.058;25.586;2023-05-10T01:52:10;63255.06;;;9.28;100.00
7832;BME280;3961;42.058;25.586;2023-05-10T01:54:43;63238.44;;;9.08;100.00
7832;BME280;3961;42.058;25.586;2023-05-10T01:57:10;63243.97;;;9.11;100.00
7832;BME280;3961;42.058;25.586;2023-05-10T01:59:40;63203.50;;;8.80;100.00
7832;BME280;3961;42.058;25.586;2023-05-10T02:02:08;63208.94;;;8.87;100.00
7832;BME280;3961;42.058;25.586;2023-05-10T02:04:39;63242.13;;;9.14;100.00
7832;BME280;3961;42.058;25.586;2023-05-10T02:07:06;63253.75;;;9.20;100.00
7832;BME280;3961;42.058;25.586;2023-05-10T02:09:34;63250.19;;;9.21;100.00
7832;BME280;3961;42.058;25.586;2023-05-10T02:12:01;63257.81;;;9.23;100.00
7832;BME280;3961;42.058;25.586;2023-05-10T02:14:34;63256.56;;;9.27;100.00
7832;BME280;3961;42.058;25.586;2023-05-10T02:17:02;63256.31;;;9.24;100.00
7832;BME280;3961;42.058;25.586;2023-05-10T02:19:31;63249.72;;;9.16;100.00
7832;BME280;3961;42.058;25.586;2023-05-10T02:21:58;63236.03;;;9.11;100.00
7832;BME280;3961;42.058;25.586;2023-05-10T02:24:25;63251.13;;;9.20;100.00
7832;BME280;3961;42.058;25.586;2023-05-10T02:26:53;63247.31;;;9.19;100.00
7832;BME280;3961;42.058;25.586;2023-05-10T02:29:22;63252.84;;;9.21;100.00
7832;BME280;3961;42.058;25.586;2023-05-10T02:31:51;63239.03;;;9.09;100.00
7832;BME280;3961;42.058;25.586;2023-05-10T02:34:19;63241.53;;;9.14;100.00
7832;BME280;3961;42.058;25.586;2023-05-10T02:36:47;63238.91;;;9.14;100.00
7832;BME280;3961;42.058;25.586;2023-05-10T02:39:13;63228.63;;;9.00;100.00
7832;BME280;3961;42.058;25.586;2023-05-10T02:41:43;63216.44;;;8.94;100.00
7832;BME280;3961;42.058;25.586;2023-05-10T02:44:11;63219.88;;;8.97;100.00
7832;BME280;3961;42.058;25.586;2023-05-10T02:46:39;63224.59;;;8.96;100.00
7832;BME280;3961;42.058;25.586;2023-05-10T02:49:05;63217.91;;;8.93;100.00
7832;BME280;3961;42.058;25.586;2023-05-10T02:51:32;63199.81;;;8.74;100.00
7832;BME280;3961;42.058;25.586;2023-05-10T02:54:07;63216.44;;;8.94;100.00
7832;BME280;3961;42.058;25.586;2023-05-10T02:56:36;63240.72;;;9.10;100.00
7832;BME280;3961;42.058;25.586;2023-05-10T02:59:05;63230.59;;;9.04;100.00
7832;BME280;3961;42.058;25.586;2023-05-10T03:01:31;63183.69;;;8.60;100.00
7832;BME280;3961;42.058;25.586;2023-05-10T03:03:57;63232.69;;;9.03;100.00
7832;BME280;3961;42.058;25.586;2023-05-10T03:06:23;63248.00;;;9.15;100.00
7832;BME280;3961;42.058;25.586;2023-05-10T03:08:49;63234.41;;;9.05;100.00
7832;BME280;3961;42.058;25.586;2023-05-10T03:17:15;63215.63;;;8.91;100.00
7832;BME280;3961;42.058;25.586;2023-05-10T03:19:48;63236.38;;;9.09;100.00
7832;BME280;3961;42.058;25.586;2023-05-10T03:22:23;63244.19;;;9.14;100.00
7832;BME280;3961;42.058;25.586;2023-05-10T03:24:53;63242.13;;;9.14;100.00
7832;BME280;3961;42.058;25.586;2023-05-10T03:27:20;63243.84;;;9.16;100.00
7832;BME280;3961;42.058;25.586;2023-05-10T03:29:47;63252.28;;;9.21;100.00
7832;BME280;3961;42.058;25.586;2023-05-10T03:32:13;63240.41;;;9.13;100.00
7832;BME280;3961;42.058;25.586;2023-05-10T03:34:42;63227.72;;;9.01;100.00
7832;BME280;3961;42.058;25.586;2023-05-10T03:37:10;63256.31;;;9.24;100.00
7832;BME280;3961;42.058;25.586;2023-05-10T03:39:36;63240.72;;;9.10;100.00
7832;BME280;3961;42.058;25.586;2023-05-10T03:42:01;63265.88;;;9.30;100.00
7832;BME280;3961;42.058;25.586;2023-05-10T03:44:27;63269.00;;;9.35;100.00
7832;BME280;3961;42.058;25.586;2023-05-10T03:46:53;63238.66;;;9.11;100.00
7832;BME280;3961;42.058;25.586;2023-05-10T03:49:18;63231.09;;;9.09;100.00
7832;BME280;3961;42.058;25.586;2023-05-10T03:51:43;63233.03;;;9.01;100.00
7832;BME280;3961;42.058;25.586;2023-05-10T03:54:09;63242.13;;;9.14;100.00
7832;BME280;3961;42.058;25.586;2023-05-10T03:56:35;63249.63;;;9.21;100.00
7832;BME280;3961;42.058;25.586;2023-05-10T03:59:00;63289.19;;;9.53;100.00
7832;BME280;3961;42.058;25.586;2023-05-10T04:01:26;63308.00;;;9.67;100.00
7832;BME280;3961;42.058;25.586;2023-05-10T04:03:51;63280.19;;;9.48;100.00
7832;BME280;3961;42.058;25.586;2023-05-10T04:06:17;63293.81;;;9.57;100.00
7832;BME280;3961;42.058;25.586;2023-05-10T04:08:42;63280.44;;;9.50;100.00
7832;BME280;3961;42.058;25.586;2023-05-10T04:11:09;63288.25;;;9.55;100.00
7832;BME280;3961;42.058;25.586;2023-05-10T04:13:35;63299.22;;;9.64;100.00
7832;BME280;3961;42.058;25.586;2023-05-10T04:16:01;63292.31;;;9.58;100.00
7832;BME280;3961;42.058;25.586;2023-05-10T04:18:26;63296.69;;;9.60;100.00
7832;BME280;3961;42.058;25.586;2023-05-10T04:20:52;63291.38;;;9.60;100.00
7832;BME280;3961;42.058;25.586;2023-05-10T04:23:18;63313.63;;;9.77;100.00
7832;BME280;3961;42.058;25.586;2023-05-10T04:25:43;63332.78;;;9.89;100.00
7832;BME280;3961;42.058;25.586;2023-05-10T04:28:09;63318.38;;;9.76;100.00
7832;BME280;3961;42.058;25.586;2023-05-10T04:30:34;63267.84;;;9.34;100.00
7832;BME280;3961;42.058;25.586;2023-05-10T04:33:00;63285.47;;;9.48;100.00
7832;BME280;3961;42.058;25.586;2023-05-10T04:35:27;63253.09;;;9.24;100.00
7832;BME280;3961;42.058;25.586;2023-05-10T04:37:54;63289.75;;;9.54;100.00
7832;BME280;3961;42.058;25.586;2023-05-10T04:40:19;63296.09;;;9.59;100.00
7832;BME280;3961;42.058;25.586;2023-05-10T04:42:45;63319.66;;;9.85;100.00
7832;BME280;3961;42.058;25.586;2023-05-10T04:45:11;63355.28;;;10.09;100.00
7832;BME280;3961;42.058;25.586;2023-05-10T04:47:37;63369.66;;;10.26;100.00
7832;BME280;3961;42.058;25.586;2023-05-10T04:50:03;63363.31;;;10.21;100.00
7832;BME280;3961;42.058;25.586;2023-05-10T04:52:29;63363.03;;;10.18;100.00
7832;BME280;3961;42.058;25.586;2023-05-10T04:54:54;63359.56;;;10.15;100.00
7832;BME280;3961;42.058;25.586;2023-05-10T04:57:20;63367.69;;;10.22;100.00
7832;BME280;3961;42.058;25.586;2023-05-10T04:59:45;63343.31;;;10.05;100.00
7832;BME280;3961;42.058;25.586;2023-05-10T05:02:11;63354.38;;;10.10;100.00
7832;BME280;3961;42.058;25.586;2023-05-10T05:04:36;63374.84;;;10.31;100.00
7832;BME280;3961;42.058;25.586;2023-05-10T05:07:02;63351.50;;;10.08;100.00
7832;BME280;3961;42.058;25.586;2023-05-10T05:09:27;63347.47;;;10.04;100.00
7832;BME280;3961;42.058;25.586;2023-05-10T05:11:53;63371.16;;;10.25;100.00
7832;BME280;3961;42.058;25.586;2023-05-10T05:14:18;63370.81;;;10.27;100.00
7832;BME280;3961;42.058;25.586;2023-05-10T05:16:46;63394.47;;;10.48;100.00
7832;BME280;3961;42.058;25.586;2023-05-10T05:19:11;63386.75;;;10.39;100.00
7832;BME280;3961;42.058;25.586;2023-05-10T05:21:37;63388.47;;;10.40;100.00
7832;BME280;3961;42.058;25.586;2023-05-10T05:24:03;63391.59;;;10.46;100.00
7832;BME280;3961;42.058;25.586;2023-05-10T05:26:28;63411.22;;;10.63;100.00
7832;BME280;3961;42.058;25.586;2023-05-10T05:28:54;63423.13;;;10.71;100.00
7832;BME280;3961;42.058;25.586;2023-05-10T05:31:20;63401.75;;;10.52;100.00
7832;BME280;3961;42.058;25.586;2023-05-10T05:33:46;63396.22;;;10.50;100.00
7832;BME280;3961;42.058;25.586;2023-05-10T05:36:11;63418.75;;;10.69;100.00
7832;BME280;3961;42.058;25.586;2023-05-10T05:38:37;63459.16;;;11.05;100.00
7832;BME280;3961;42.058;25.586;2023-05-10T05:41:02;63471.31;;;11.16;100.00
7832;BME280;3961;42.058;25.586;2023-05-10T05:43:28;63486.69;;;11.27;100.00
7832;BME280;3961;42.058;25.586;2023-05-10T05:45:54;63456.28;;;11.02;100.00
7832;BME280;3961;42.058;25.586;2023-05-10T05:48:20;63462.19;;;11.03;100.00
7832;BME280;3961;42.058;25.586;2023-05-10T05:50:45;63452.59;;;10.97;100.00
7832;BME280;3961;42.058;25.586;2023-05-10T05:53:12;63460.69;;;11.04;100.00
7832;BME280;3961;42.058;25.586;2023-05-10T05:55:38;63473.72;;;11.13;100.00
7832;BME280;3961;42.058;25.586;2023-05-10T05:58:03;63464.13;;;11.07;100.00
7832;BME280;3961;42.058;25.586;2023-05-10T06:00:29;63483.78;;;11.24;100.00
7832;BME280;3961;42.058;25.586;2023-05-10T06:02:54;63474.31;;;11.14;100.00
7832;BME280;3961;42.058;25.586;2023-05-10T06:05:20;63481.47;;;11.22;100.00
7832;BME280;3961;42.058;25.586;2023-05-10T06:07:46;63474.31;;;11.14;100.00
7832;BME280;3961;42.058;25.586;2023-05-10T06:10:11;63471.41;;;11.11;100.00
7832;BME280;3961;42.058;25.586;2023-05-10T06:12:37;63502.84;;;11.41;100.00
7832;BME280;3961;42.058;25.586;2023-05-10T06:15:03;63532.34;;;11.67;100.00
7832;BME280;3961;42.058;25.586;2023-05-10T06:17:29;63530.63;;;11.65;100.00
7832;BME280;3961;42.058;25.586;2023-05-10T06:19:55;63604.09;;;12.30;100.00
7832;BME280;3961;42.058;25.586;2023-05-10T06:22:20;63640.56;;;12.62;100.00
7832;BME280;3961;42.058;25.586;2023-05-10T06:24:48;63620.28;;;12.44;100.00
7832;BME280;3961;42.058;25.586;2023-05-10T06:27:14;63597.97;;;12.27;100.00
7832;BME280;3961;42.058;25.586;2023-05-10T06:29:39;63560.13;;;11.91;100.00
7832;BME280;3961;42.058;25.586;2023-05-10T06:32:05;63558.38;;;11.90;100.00
7832;BME280;3961;42.058;25.586;2023-05-10T06:34:30;63560.13;;;11.91;100.00
7832;BME280;3961;42.058;25.586;2023-05-10T06:36:57;63546.59;;;11.77;100.00
7832;BME280;3961;42.058;25.586;2023-05-10T06:39:22;63543.25;;;11.81;100.00
7832;BME280;3961;42.058;25.586;2023-05-10T06:41:48;63558.97;;;11.90;100.00
7832;BME280;3961;42.058;25.586;2023-05-10T06:44:13;63534.09;;;11.68;100.00
7832;BME280;3961;42.058;25.586;2023-05-10T06:46:39;63559.66;;;11.86;100.00
7832;BME280;3961;42.058;25.586;2023-05-10T06:49:05;63515.00;;;11.52;100.00
7832;BME280;3961;42.058;25.586;2023-05-10T06:51:30;63546.25;;;11.79;100.00
7832;BME280;3961;42.058;25.586;2023-05-10T06:53:56;63574.38;;;12.01;100.00
7832;BME280;3961;42.058;25.586;2023-05-10T06:56:21;63584.41;;;12.13;100.00
7832;BME280;3961;42.058;25.586;2023-05-10T06:58:50;63588.47;;;12.16;100.00
7832;BME280;3961;42.058;25.586;2023-05-10T07:01:15;63574.00;;;12.03;100.00
7832;BME280;3961;42.058;25.586;2023-05-10T07:03:41;63527.50;;;11.60;100.00
7832;BME280;3961;42.058;25.586;2023-05-10T07:06:06;63535.81;;;11.70;100.00
7832;BME280;3961;42.058;25.586;2023-05-10T07:08:35;63559.56;;;11.91;100.00
7832;BME280;3961;42.058;25.586;2023-05-10T07:11:05;63610.44;;;12.35;100.00
7832;BME280;3961;42.058;25.586;2023-05-10T07:13:33;63621.69;;;12.48;100.00
7832;BME280;3961;42.058;25.586;2023-05-10T07:15:59;63626.66;;;12.50;100.00
7832;BME280;3961;42.058;25.586;2023-05-10T07:18:26;63634.78;;;12.57;100.00
7832;BME280;3961;42.058;25.586;2023-05-10T07:20:51;63628.41;;;12.51;100.00
7832;BME280;3961;42.058;25.586;2023-05-10T07:23:17;63605.25;;;12.31;100.00
7832;BME280;3961;42.058;25.586;2023-05-10T07:25:50;63609.88;;;12.35;100.00
7832;BME280;3961;42.058;25.586;2023-05-10T07:28:19;63591.38;;;12.19;100.00
7832;BME280;3961;42.058;25.586;2023-05-10T07:30:45;63640.31;;;12.59;100.00
7832;BME280;3961;42.058;25.586;2023-05-10T07:33:13;63643.47;;;12.64;100.00
7832;BME280;3961;42.058;25.586;2023-05-10T07:35:38;63647.50;;;12.68;100.00
7832;BME280;3961;42.058;25.586;2023-05-10T07:38:04;63639.97;;;12.61;100.00
7832;BME280;3961;42.058;25.586;2023-05-10T07:40:30;63611.84;;;12.39;100.00
7832;BME280;3961;42.058;25.586;2023-05-10T07:42:55;63653.63;;;12.71;100.00
7832;BME280;3961;42.058;25.586;2023-05-10T07:45:21;63648.88;;;12.71;100.00
7832;BME280;3961;42.058;25.586;2023-05-10T07:47:47;63676.09;;;12.95;100.00
7832;BME280;3961;42.058;25.586;2023-05-10T07:50:14;63691.84;;;13.04;100.00
7832;BME280;3961;42.058;25.586;2023-05-10T07:52:40;63644.03;;;12.65;100.00
7832;BME280;3961;42.058;25.586;2023-05-10T07:55:06;63670.88;;;12.91;100.00
7832;BME280;3961;42.058;25.586;2023-05-10T07:57:34;63690.56;;;13.08;100.00
7832;BME280;3961;42.058;25.586;2023-05-10T07:59:59;63702.53;;;13.16;100.00
7832;BME280;3961;42.058;25.586;2023-05-10T08:02:25;63658.25;;;12.75;100.00
7832;BME280;3961;42.058;25.586;2023-05-10T08:04:50;63645.97;;;12.69;100.00
7832;BME280;3961;42.058;25.586;2023-05-10T08:07:16;63639.63;;;12.63;100.00
7832;BME280;3961;42.058;25.586;2023-05-10T08:09:42;63647.84;;;12.66;100.00
7832;BME280;3961;42.058;25.586;2023-05-10T08:12:07;63709.38;;;13.27;100.00
7832;BME280;3961;42.058;25.586;2023-05-10T08:14:33;63830.97;;;14.26;100.00
7832;BME280;3961;42.058;25.586;2023-05-10T08:16:58;63781.34;;;13.85;100.00
7832;BME280;3961;42.058;25.586;2023-05-10T08:19:24;63807.06;;;14.10;100.00
7832;BME280;3961;42.058;25.586;2023-05-10T08:21:49;63759.28;;;13.66;100.00
7832;BME280;3961;42.058;25.586;2023-05-10T08:24:15;63722.22;;;13.33;100.00
7832;BME280;3961;42.058;25.586;2023-05-10T08:26:40;63693.47;;;13.10;100.00
7832;BME280;3961;42.058;25.586;2023-05-10T08:29:06;63717.59;;;13.29;100.00
7832;BME280;3961;42.058;25.586;2023-05-10T08:31:32;63703.69;;;13.17;100.00
7832;BME280;3961;42.058;25.586;2023-05-10T08:33:57;63708.31;;;13.21;100.00
7832;BME280;3961;42.058;25.586;2023-05-10T08:36:23;63713.53;;;13.26;100.00
7832;BME280;3961;42.058;25.586;2023-05-10T08:38:53;63680.50;;;12.97;100.00
7832;BME280;3961;42.058;25.586;2023-05-10T08:41:22;63673.22;;;12.93;100.00
7832;BME280;3961;42.058;25.586;2023-05-10T08:43:52;63671.13;;;12.93;100.00
7832;BME280;3961;42.058;25.586;2023-05-10T08:46:19;63661.72;;;12.78;100.00
7832;BME280;3961;42.058;25.586;2023-05-10T08:48:46;63672.97;;;12.90;100.00
7832;BME280;3961;42.058;25.586;2023-05-10T08:51:17;63699.59;;;13.13;100.00
7832;BME280;3961;42.058;25.586;2023-05-10T08:53:44;63691.50;;;13.06;100.00
7832;BME280;3961;42.058;25.586;2023-05-10T08:56:10;63707.63;;;13.25;100.00
7832;BME280;3961;42.058;25.586;2023-05-10T08:58:36;63716.66;;;13.31;100.00
7832;BME280;3961;42.058;25.586;2023-05-10T09:01:02;63732.66;;;13.42;100.00
7832;BME280;3961;42.058;25.586;2023-05-10T09:03:28;63687.44;;;13.03;100.00
7832;BME280;3961;42.058;25.586;2023-05-10T09:05:54;63712.03;;;13.27;100.00
7832;BME280;3961;42.058;25.586;2023-05-10T09:08:25;63732.06;;;13.42;100.00
7832;BME280;3961;42.058;25.586;2023-05-10T09:10:51;63712.84;;;13.30;100.00
7832;BME280;3961;42.058;25.586;2023-05-10T09:13:18;63746.56;;;13.55;100.00
7832;BME280;3961;42.058;25.586;2023-05-10T09:15:45;63732.88;;;13.45;100.00
7832;BME280;3961;42.058;25.586;2023-05-10T09:18:11;63776.69;;;13.81;100.00
7832;BME280;3961;42.058;25.586;2023-05-10T09:20:37;63744.00;;;13.50;100.00
7832;BME280;3961;42.058;25.586;2023-05-10T09:23:02;63764.75;;;13.73;100.00
7832;BME280;3961;42.058;25.586;2023-05-10T09:25:28;63748.28;;;13.56;100.00
7832;BME280;3961;42.058;25.586;2023-05-10T09:27:54;63751.53;;;13.57;100.00
7832;BME280;3961;42.058;25.586;2023-05-10T09:30:28;63826.56;;;14.25;100.00
7832;BME280;3961;42.058;25.586;2023-05-10T09:32:55;63837.56;;;14.34;100.00
7832;BME280;3961;42.058;25.586;2023-05-10T09:35:22;63861.03;;;14.57;100.00
7832;BME280;3961;42.058;25.586;2023-05-10T09:37:50;63857.66;;;14.50;100.00
7832;BME280;3961;42.058;25.586;2023-05-10T09:40:26;63869.47;;;14.62;100.00
7832;BME280;3961;42.058;25.586;2023-05-10T09:43:03;63850.00;;;14.48;100.00
7832;BME280;3961;42.058;25.586;2023-05-10T09:45:31;63814.25;;;14.19;100.00
7832;BME280;3961;42.058;25.586;2023-05-10T09:47:57;63877.59;;;14.69;100.00
7832;BME280;3961;42.058;25.586;2023-05-10T09:50:24;63854.66;;;14.52;99.58
7832;BME280;3961;42.058;25.586;2023-05-10T09:52:54;63888.41;;;14.76;99.28
7832;BME280;3961;42.058;25.586;2023-05-10T09:55:22;63892.69;;;14.83;100.00
7832;BME280;3961;42.058;25.586;2023-05-10T09:57:49;63906.41;;;14.92;100.00
7832;BME280;3961;42.058;25.586;2023-05-10T10:00:23;63856.03;;;14.55;98.59
7832;BME280;3961;42.058;25.586;2023-05-10T10:02:58;63867.53;;;14.58;99.09
7832;BME280;3961;42.058;25.586;2023-05-10T10:05:34;63899.66;;;14.89;99.04
7832;BME280;3961;42.058;25.586;2023-05-10T10:08:03;63921.72;;;15.08;97.53
7832;BME280;3961;42.058;25.586;2023-05-10T10:10:28;63962.13;;;15.41;96.93
7832;BME280;3961;42.058;25.586;2023-05-10T10:12:54;63922.63;;;15.06;95.84
7832;BME280;3961;42.058;25.586;2023-05-10T10:15:21;63928.34;;;15.16;96.65
7832;BME280;3961;42.058;25.586;2023-05-10T10:17:48;63967.00;;;15.48;95.09
7832;BME280;3961;42.058;25.586;2023-05-10T10:20:14;63997.22;;;15.74;94.38
7832;BME280;3961;42.058;25.586;2023-05-10T10:22:40;64071.34;;;16.36;91.54
7832;BME280;3961;42.058;25.586;2023-05-10T10:25:06;64020.44;;;15.94;91.37
7832;BME280;3961;42.058;25.586;2023-05-10T10:30:34;63912.66;;;15.02;93.80
7832;BME280;3961;42.058;25.586;2023-05-10T10:36:04;63974.81;;;15.57;95.32
7832;BME280;3961;42.058;25.586;2023-05-10T10:38:37;63962.69;;;15.41;95.69
7832;BME280;3961;42.058;25.586;2023-05-10T10:41:33;63959.56;;;15.36;95.50
7832;BME280;3961;42.058;25.586;2023-05-10T10:47:00;64038.69;;;16.12;95.25
7832;BME280;3961;42.058;25.586;2023-05-10T10:49:26;64061.13;;;16.30;92.04
7832;BME280;3961;42.058;25.586;2023-05-10T10:57:44;64098.22;;;16.67;89.28
7832;BME280;3961;42.058;25.586;2023-05-10T11:00:32;64038.69;;;16.12;90.00
7832;BME280;3961;42.058;25.586;2023-05-10T11:03:08;64011.97;;;15.89;90.72
7832;BME280;3961;42.058;25.586;2023-05-10T11:05:41;64026.13;;;16.04;89.04
7832;BME280;3961;42.058;25.586;2023-05-10T11:08:12;64059.16;;;16.26;88.72
7832;BME280;3961;42.058;25.586;2023-05-10T11:10:39;64027.19;;;15.98;90.83
7832;BME280;3961;42.058;25.586;2023-05-10T11:13:07;64006.50;;;15.82;94.72
7832;BME280;3961;42.058;25.586;2023-05-10T11:15:35;64044.28;;;16.15;88.81
7832;BME280;3961;42.058;25.586;2023-05-10T11:18:18;63975.47;;;15.53;89.99
7832;BME280;3961;42.058;25.586;2023-05-10T11:20:44;63932.97;;;15.20;91.99
7832;BME280;3961;42.058;25.586;2023-05-10T11:23:15;63866.81;;;14.62;92.15
7832;BME280;3961;42.058;25.586;2023-05-10T11:25:45;63923.91;;;15.15;94.13
7832;BME280;3961;42.058;25.586;2023-05-10T11:28:12;63956.53;;;15.38;93.46
7832;BME280;3961;42.058;25.586;2023-05-10T11:30:43;63976.66;;;15.54;93.45
7832;BME280;3961;42.058;25.586;2023-05-10T11:33:09;64036.13;;;16.08;92.26
7832;BME280;3961;42.058;25.586;2023-05-10T11:35:39;64093.09;;;16.58;91.08
7832;BME280;3961;42.058;25.586;2023-05-10T11:38:09;64117.78;;;16.82;88.97
7832;BME280;3961;42.058;25.586;2023-05-10T11:40:35;64214.09;;;17.63;88.38
7832;BME280;3961;42.058;25.586;2023-05-10T11:43:02;64148.72;;;17.04;84.78
7832;BME280;3961;42.058;25.586;2023-05-10T11:45:28;64132.66;;;16.92;86.16
7832;BME280;3961;42.058;25.586;2023-05-10T11:47:58;64134.63;;;16.96;85.20
7832;BME280;3961;42.058;25.586;2023-05-10T11:50:24;64138.94;;;17.02;85.03
7832;BME280;3961;42.058;25.586;2023-05-10T11:52:55;64135.56;;;16.95;88.41
7832;BME280;3961;42.058;25.586;2023-05-10T11:55:22;64129.75;;;16.90;90.03
7832;BME280;3961;42.058;25.586;2023-05-10T11:58:00;64089.25;;;16.57;89.66
7832;BME280;3961;42.058;25.586;2023-05-10T12:00:26;64025.56;;;16.03;89.63
7832;BME280;3961;42.058;25.586;2023-05-10T12:02:51;64013.13;;;15.90;88.70
7832;BME280;3961;42.058;25.586;2023-05-10T12:05:17;64032.06;;;16.04;89.39
7832;BME280;3961;42.058;25.586;2023-05-10T12:07:43;64055.69;;;16.23;89.32
7832;BME280;3961;42.058;25.586;2023-05-10T12:10:10;64073.91;;;16.41;90.06
7832;BME280;3961;42.058;25.586;2023-05-10T12:12:43;64082.63;;;16.49;88.22
7832;BME280;3961;42.058;25.586;2023-05-10T12:15:17;64090.53;;;16.53;87.71
7832;BME280;3961;42.058;25.586;2023-05-10T12:17:44;64066.13;;;16.32;90.01
7832;BME280;3961;42.058;25.586;2023-05-10T12:20:20;64097.75;;;16.62;84.95
7832;BME280;3961;42.058;25.586;2023-05-10T12:22:49;64130.91;;;16.91;84.61
7832;BME280;3961;42.058;25.586;2023-05-10T12:25:16;64092.28;;;16.55;82.65
7832;BME280;3961;42.058;25.586;2023-05-10T12:27:51;64137.88;;;16.97;84.27
7832;BME280;3961;42.058;25.586;2023-05-10T12:30:25;64131.47;;;16.91;83.85
7832;BME280;3961;42.058;25.586;2023-05-10T12:32:51;64189.78;;;17.37;83.42
7832;BME280;3961;42.058;25.586;2023-05-10T12:35:18;64203.41;;;17.52;81.92
7832;BME280;3961;42.058;25.586;2023-05-10T12:37:50;64259.31;;;18.00;81.92
7832;BME280;3961;42.058;25.586;2023-05-10T12:40:16;64218.44;;;17.69;84.21
7832;BME280;3961;42.058;25.586;2023-05-10T12:42:41;64196.53;;;17.53;83.69
7832;BME280;3961;42.058;25.586;2023-05-10T12:45:08;64127.19;;;16.85;84.57
7832;BME280;3961;42.058;25.586;2023-05-10T12:47:34;64092.50;;;16.57;86.61
7832;BME280;3961;42.058;25.586;2023-05-10T12:50:01;64039.03;;;16.10;89.09
7832;BME280;3961;42.058;25.586;2023-05-10T12:52:27;64037.31;;;16.09;89.19
7832;BME280;3961;42.058;25.586;2023-05-10T12:54:53;64001.88;;;15.78;89.88
7832;BME280;3961;42.058;25.586;2023-05-10T12:57:22;64019.28;;;15.93;88.96
7832;BME280;3961;42.058;25.586;2023-05-10T12:59:47;64014.19;;;15.84;89.01
7832;BME280;3961;42.058;25.586;2023-05-10T13:02:13;64019.50;;;15.96;88.55
7832;BME280;3961;42.058;25.586;2023-05-10T13:04:40;64023.94;;;15.97;88.66
7832;BME280;3961;42.058;25.586;2023-05-10T13:07:06;64014.06;;;15.89;90.89
7832;BME280;3961;42.058;25.586;2023-05-10T13:09:32;63998.25;;;15.79;89.86
7832;BME280;3961;42.058;25.586;2023-05-10T13:11:57;64044.97;;;16.11;89.56
7832;BME280;3961;42.058;25.586;2023-05-10T13:14:23;63992.22;;;15.72;87.44
7832;BME280;3961;42.058;25.586;2023-05-10T13:16:48;64008.84;;;15.84;88.09
7832;BME280;3961;42.058;25.586;2023-05-10T13:19:14;64023.13;;;15.94;88.46
7832;BME280;3961;42.058;25.586;2023-05-10T13:21:39;64042.53;;;16.13;88.61
7832;BME280;3961;42.058;25.586;2023-05-10T13:24:06;64107.06;;;16.70;87.44
7832;BME280;3961;42.058;25.586;2023-05-10T13:26:32;64061.47;;;16.28;82.64
7832;BME280;3961;42.058;25.586;2023-05-10T13:28:58;64013.50;;;15.88;83.21
7832;BME280;3961;42.058;25.586;2023-05-10T13:31:23;64070.41;;;16.38;84.29
7832;BME280;3961;42.058;25.586;2023-05-10T13:33:49;64105.31;;;16.68;83.03
7832;BME280;3961;42.058;25.586;2023-05-10T13:36:14;64114.63;;;16.76;81.75
7832;BME280;3961;42.058;25.586;2023-05-10T13:38:40;64123.72;;;16.82;83.03